sensor_id;sensor_type;location;lat;lon;timestamp;P1;durP1;ratioP1;P2;durP2;ratioP2
68449;SDS011;67758;39.572;2.652;2023-04-30T00:01:58;11.73;;;2.30;;
68449;SDS011;67758;39.572;2.652;2023-04-30T00:04:23;10.45;;;2.50;;
68449;SDS011;67758;39.572;2.652;2023-04-30T00:06:49;8.03;;;2.23;;
68449;SDS011;67758;39.572;2.652;2023-04-30T00:09:15;9.25;;;2.42;;
68449;SDS011;67758;39.572;2.652;2023-04-30T00:11:40;9.80;;;2.30;;
68449;SDS011;67758;39.572;2.652;2023-04-30T00:14:06;12.10;;;2.60;;
68449;SDS011;67758;39.572;2.652;2023-04-30T00:16:31;9.03;;;2.40;;
68449;SDS011;67758;39.572;2.652;2023-04-30T00:18:57;10.87;;;2.87;;
68449;SDS011;67758;39.572;2.652;2023-04-30T00:21:23;12.07;;;2.60;;
68449;SDS011;67758;39.572;2.652;2023-04-30T00:23:48;8.30;;;2.40;;
68449;SDS011;67758;39.572;2.652;2023-04-30T00:26:14;10.45;;;3.20;;
68449;SDS011;67758;39.572;2.652;2023-04-30T00:28:39;9.87;;;2.80;;
68449;SDS011;67758;39.572;2.652;2023-04-30T00:31:05;9.23;;;3.00;;
68449;SDS011;67758;39.572;2.652;2023-04-30T00:33:33;10.45;;;3.50;;
68449;SDS011;67758;39.572;2.652;2023-04-30T00:35:59;21.70;;;4.32;;
68449;SDS011;67758;39.572;2.652;2023-04-30T00:38:25;17.55;;;3.72;;
68449;SDS011;67758;39.572;2.652;2023-04-30T00:40:51;13.17;;;3.77;;
68449;SDS011;67758;39.572;2.652;2023-04-30T00:43:17;14.95;;;4.47;;
68449;SDS011;67758;39.572;2.652;2023-04-30T00:45:43;13.23;;;3.80;;
68449;SDS011;67758;39.572;2.652;2023-04-30T00:48:08;14.70;;;4.03;;
68449;SDS011;67758;39.572;2.652;2023-04-30T00:50:35;12.40;;;3.60;;
68449;SDS011;67758;39.572;2.652;2023-04-30T00:53:01;12.98;;;3.80;;
68449;SDS011;67758;39.572;2.652;2023-04-30T00:55:27;17.92;;;4.90;;
68449;SDS011;67758;39.572;2.652;2023-04-30T00:57:53;16.77;;;4.38;;
68449;SDS011;67758;39.572;2.652;2023-04-30T01:00:19;13.13;;;4.85;;
68449;SDS011;67758;39.572;2.652;2023-04-30T01:02:45;14.97;;;6.33;;
68449;SDS011;67758;39.572;2.652;2023-04-30T01:05:12;14.68;;;5.85;;
68449;SDS011;67758;39.572;2.652;2023-04-30T01:07:37;14.52;;;4.50;;
68449;SDS011;67758;39.572;2.652;2023-04-30T01:10:08;16.00;;;5.73;;
68449;SDS011;67758;39.572;2.652;2023-04-30T01:18:14;13.23;;;3.38;;
68449;SDS011;67758;39.572;2.652;2023-04-30T01:20:53;11.63;;;4.00;;
68449;SDS011;67758;39.572;2.652;2023-04-30T01:28:35;10.75;;;3.97;;
68449;SDS011;67758;39.572;2.652;2023-04-30T01:31:02;13.05;;;3.78;;
68449;SDS011;67758;39.572;2.652;2023-04-30T01:33:28;12.80;;;3.53;;
68449;SDS011;67758;39.572;2.652;2023-04-30T01:44:17;8.25;;;2.17;;
68449;SDS011;67758;39.572;2.652;2023-04-30T01:47:06;9.20;;;2.30;;
68449;SDS011;67758;39.572;2.652;2023-04-30T01:52:20;7.70;;;1.40;;
68449;SDS011;67758;39.572;2.652;2023-04-30T01:54:54;8.20;;;1.73;;
68449;SDS011;67758;39.572;2.652;2023-04-30T01:57:31;5.25;;;1.10;;
68449;SDS011;67758;39.572;2.652;2023-04-30T02:00:01;5.70;;;1.50;;
68449;SDS011;67758;39.572;2.652;2023-04-30T02:02:29;7.33;;;1.60;;
68449;SDS011;67758;39.572;2.652;2023-04-30T02:04:55;10.38;;;2.10;;
68449;SDS011;67758;39.572;2.652;2023-04-30T02:07:39;11.47;;;2.30;;
68449;SDS011;67758;39.572;2.652;2023-04-30T02:10:09;8.82;;;2.17;;
68449;SDS011;67758;39.572;2.652;2023-04-30T02:12:38;8.98;;;2.20;;
68449;SDS011;67758;39.572;2.652;2023-04-30T02:15:04;13.07;;;2.15;;
68449;SDS011;67758;39.572;2.652;2023-04-30T02:17:31;7.75;;;2.10;;
68449;SDS011;67758;39.572;2.652;2023-04-30T02:19:57;7.83;;;1.60;;
68449;SDS011;67758;39.572;2.652;2023-04-30T02:22:23;6.68;;;1.90;;
68449;SDS011;67758;39.572;2.652;2023-04-30T02:24:48;10.53;;;1.80;;
68449;SDS011;67758;39.572;2.652;2023-04-30T02:27:14;9.27;;;2.00;;
68449;SDS011;67758;39.572;2.652;2023-04-30T02:29:40;9.55;;;2.15;;
68449;SDS011;67758;39.572;2.652;2023-04-30T02:32:06;7.13;;;1.57;;
68449;SDS011;67758;39.572;2.652;2023-04-30T02:34:31;7.85;;;1.60;;
68449;SDS011;67758;39.572;2.652;2023-04-30T02:36:57;8.70;;;1.60;;
68449;SDS011;67758;39.572;2.652;2023-04-30T02:39:23;11.63;;;1.87;;
68449;SDS011;67758;39.572;2.652;2023-04-30T02:41:48;9.32;;;1.73;;
68449;SDS011;67758;39.572;2.652;2023-04-30T02:44:14;5.87;;;1.60;;
68449;SDS011;67758;39.572;2.652;2023-04-30T02:46:40;6.88;;;1.70;;
68449;SDS011;67758;39.572;2.652;2023-04-30T02:49:05;9.80;;;1.63;;
68449;SDS011;67758;39.572;2.652;2023-04-30T02:51:31;6.95;;;1.63;;
68449;SDS011;67758;39.572;2.652;2023-04-30T02:53:57;10.57;;;2.40;;
68449;SDS011;67758;39.572;2.652;2023-04-30T02:56:22;10.40;;;2.40;;
68449;SDS011;67758;39.572;2.652;2023-04-30T02:58:48;9.23;;;2.70;;
68449;SDS011;67758;39.572;2.652;2023-04-30T03:01:14;6.90;;;2.17;;
68449;SDS011;67758;39.572;2.652;2023-04-30T03:03:40;10.73;;;2.20;;
68449;SDS011;67758;39.572;2.652;2023-04-30T03:06:05;8.23;;;2.10;;
68449;SDS011;67758;39.572;2.652;2023-04-30T03:08:31;12.90;;;2.83;;
68449;SDS011;67758;39.572;2.652;2023-04-30T03:10:57;10.73;;;2.30;;
68449;SDS011;67758;39.572;2.652;2023-04-30T03:13:23;7.22;;;2.10;;
68449;SDS011;67758;39.572;2.652;2023-04-30T03:16:00;11.37;;;2.17;;
68449;SDS011;67758;39.572;2.652;2023-04-30T03:18:31;7.35;;;1.95;;
68449;SDS011;67758;39.572;2.652;2023-04-30T03:20:57;8.38;;;2.00;;
68449;SDS011;67758;39.572;2.652;2023-04-30T03:23:23;7.70;;;1.98;;
68449;SDS011;67758;39.572;2.652;2023-04-30T03:25:51;8.88;;;2.05;;
68449;SDS011;67758;39.572;2.652;2023-04-30T03:28:16;10.40;;;1.90;;
68449;SDS011;67758;39.572;2.652;2023-04-30T03:30:42;8.73;;;1.80;;
68449;SDS011;67758;39.572;2.652;2023-04-30T03:33:07;7.28;;;2.15;;
68449;SDS011;67758;39.572;2.652;2023-04-30T03:35:33;8.03;;;2.00;;
68449;SDS011;67758;39.572;2.652;2023-04-30T03:37:59;8.32;;;1.83;;
68449;SDS011;67758;39.572;2.652;2023-04-30T03:40:25;6.82;;;1.90;;
68449;SDS011;67758;39.572;2.652;2023-04-30T03:42:51;8.03;;;1.90;;
68449;SDS011;67758;39.572;2.652;2023-04-30T03:45:17;8.18;;;1.60;;
68449;SDS011;67758;39.572;2.652;2023-04-30T03:47:43;7.60;;;1.83;;
68449;SDS011;67758;39.572;2.652;2023-04-30T03:50:09;5.93;;;2.03;;
68449;SDS011;67758;39.572;2.652;2023-04-30T03:52:35;11.38;;;2.35;;
68449;SDS011;67758;39.572;2.652;2023-04-30T03:55:04;8.65;;;1.98;;
68449;SDS011;67758;39.572;2.652;2023-04-30T03:57:31;7.05;;;1.92;;
68449;SDS011;67758;39.572;2.652;2023-04-30T03:59:57;7.23;;;1.87;;
68449;SDS011;67758;39.572;2.652;2023-04-30T04:02:23;7.55;;;1.83;;
68449;SDS011;67758;39.572;2.652;2023-04-30T04:04:50;11.85;;;1.70;;
68449;SDS011;67758;39.572;2.652;2023-04-30T04:07:16;8.20;;;2.15;;
68449;SDS011;67758;39.572;2.652;2023-04-30T04:09:42;8.57;;;2.10;;
68449;SDS011;67758;39.572;2.652;2023-04-30T04:12:09;7.50;;;2.00;;
68449;SDS011;67758;39.572;2.652;2023-04-30T04:14:36;9.00;;;1.88;;
68449;SDS011;67758;39.572;2.652;2023-04-30T04:17:03;6.63;;;1.70;;
68449;SDS011;67758;39.572;2.652;2023-04-30T04:19:31;7.15;;;1.92;;
68449;SDS011;67758;39.572;2.652;2023-04-30T04:21:56;7.78;;;2.00;;
68449;SDS011;67758;39.572;2.652;2023-04-30T04:24:25;7.67;;;2.13;;
68449;SDS011;67758;39.572;2.652;2023-04-30T04:26:53;5.90;;;2.05;;
68449;SDS011;67758;39.572;2.652;2023-04-30T04:29:22;7.00;;;1.88;;
68449;SDS011;67758;39.572;2.652;2023-04-30T04:31:51;7.50;;;1.90;;
68449;SDS011;67758;39.572;2.652;2023-04-30T04:34:16;6.55;;;1.98;;
68449;SDS011;67758;39.572;2.652;2023-04-30T04:36:46;9.85;;;2.33;;
68449;SDS011;67758;39.572;2.652;2023-04-30T04:39:34;7.65;;;1.92;;
68449;SDS011;67758;39.572;2.652;2023-04-30T04:42:01;6.47;;;2.30;;
68449;SDS011;67758;39.572;2.652;2023-04-30T04:44:29;5.73;;;1.77;;
68449;SDS011;67758;39.572;2.652;2023-04-30T04:46:54;8.25;;;1.60;;
68449;SDS011;67758;39.572;2.652;2023-04-30T04:49:23;6.22;;;1.80;;
68449;SDS011;67758;39.572;2.652;2023-04-30T04:51:49;7.55;;;1.55;;
68449;SDS011;67758;39.572;2.652;2023-04-30T04:54:16;6.33;;;1.43;;
68449;SDS011;67758;39.572;2.652;2023-04-30T04:56:57;4.82;;;1.20;;
68449;SDS011;67758;39.572;2.652;2023-04-30T04:59:28;5.05;;;1.27;;
68449;SDS011;67758;39.572;2.652;2023-04-30T05:02:07;4.55;;;1.00;;
68449;SDS011;67758;39.572;2.652;2023-04-30T05:04:34;5.90;;;1.23;;
68449;SDS011;67758;39.572;2.652;2023-04-30T05:07:01;4.30;;;1.10;;
68449;SDS011;67758;39.572;2.652;2023-04-30T05:09:29;5.97;;;1.00;;
68449;SDS011;67758;39.572;2.652;2023-04-30T05:12:02;5.97;;;1.00;;
68449;SDS011;67758;39.572;2.652;2023-04-30T05:14:28;6.73;;;1.13;;
68449;SDS011;67758;39.572;2.652;2023-04-30T05:16:53;5.40;;;0.75;;
68449;SDS011;67758;39.572;2.652;2023-04-30T05:19:20;4.25;;;1.10;;
68449;SDS011;67758;39.572;2.652;2023-04-30T05:21:48;5.37;;;1.53;;
68449;SDS011;67758;39.572;2.652;2023-04-30T05:24:14;4.13;;;1.00;;
68449;SDS011;67758;39.572;2.652;2023-04-30T05:26:40;5.43;;;1.00;;
68449;SDS011;67758;39.572;2.652;2023-04-30T05:29:08;3.60;;;0.80;;
68449;SDS011;67758;39.572;2.652;2023-04-30T05:31:39;5.22;;;0.93;;
68449;SDS011;67758;39.572;2.652;2023-04-30T05:34:07;4.50;;;1.42;;
68449;SDS011;67758;39.572;2.652;2023-04-30T05:36:33;4.65;;;1.23;;
68449;SDS011;67758;39.572;2.652;2023-04-30T05:39:05;4.43;;;0.90;;
68449;SDS011;67758;39.572;2.652;2023-04-30T05:41:30;4.60;;;0.73;;
68449;SDS011;67758;39.572;2.652;2023-04-30T05:44:06;3.55;;;0.93;;
68449;SDS011;67758;39.572;2.652;2023-04-30T05:46:33;4.20;;;1.05;;
68449;SDS011;67758;39.572;2.652;2023-04-30T05:49:04;3.90;;;1.07;;
68449;SDS011;67758;39.572;2.652;2023-04-30T05:51:30;6.43;;;1.08;;
68449;SDS011;67758;39.572;2.652;2023-04-30T05:54:01;4.03;;;1.05;;
68449;SDS011;67758;39.572;2.652;2023-04-30T05:56:28;3.90;;;0.97;;
68449;SDS011;67758;39.572;2.652;2023-04-30T05:58:57;4.40;;;0.88;;
68449;SDS011;67758;39.572;2.652;2023-04-30T06:01:47;5.88;;;1.00;;
68449;SDS011;67758;39.572;2.652;2023-04-30T06:04:16;5.15;;;1.00;;
68449;SDS011;67758;39.572;2.652;2023-04-30T06:06:41;4.23;;;0.80;;
68449;SDS011;67758;39.572;2.652;2023-04-30T06:09:07;4.88;;;1.10;;
68449;SDS011;67758;39.572;2.652;2023-04-30T06:11:34;4.88;;;1.23;;
68449;SDS011;67758;39.572;2.652;2023-04-30T06:14:02;4.53;;;1.00;;
68449;SDS011;67758;39.572;2.652;2023-04-30T06:16:28;4.38;;;0.95;;
68449;SDS011;67758;39.572;2.652;2023-04-30T06:18:54;4.88;;;1.35;;
68449;SDS011;67758;39.572;2.652;2023-04-30T06:21:20;5.33;;;1.10;;
68449;SDS011;67758;39.572;2.652;2023-04-30T06:23:46;4.30;;;1.13;;
68449;SDS011;67758;39.572;2.652;2023-04-30T06:26:14;7.00;;;1.85;;
68449;SDS011;67758;39.572;2.652;2023-04-30T06:28:39;6.83;;;1.80;;
68449;SDS011;67758;39.572;2.652;2023-04-30T06:31:05;5.15;;;1.50;;
68449;SDS011;67758;39.572;2.652;2023-04-30T06:33:31;5.70;;;1.60;;
68449;SDS011;67758;39.572;2.652;2023-04-30T06:35:57;4.75;;;1.50;;
68449;SDS011;67758;39.572;2.652;2023-04-30T06:38:25;5.93;;;1.70;;
68449;SDS011;67758;39.572;2.652;2023-04-30T06:40:54;7.57;;;1.85;;
68449;SDS011;67758;39.572;2.652;2023-04-30T06:43:20;6.10;;;1.60;;
68449;SDS011;67758;39.572;2.652;2023-04-30T06:45:47;4.90;;;1.77;;
68449;SDS011;67758;39.572;2.652;2023-04-30T06:48:12;6.35;;;1.98;;
68449;SDS011;67758;39.572;2.652;2023-04-30T06:50:38;7.33;;;1.90;;
68449;SDS011;67758;39.572;2.652;2023-04-30T06:53:12;7.88;;;1.40;;
68449;SDS011;67758;39.572;2.652;2023-04-30T06:55:40;6.28;;;1.30;;
68449;SDS011;67758;39.572;2.652;2023-04-30T06:58:07;5.22;;;1.27;;
68449;SDS011;67758;39.572;2.652;2023-04-30T07:00:33;5.97;;;1.52;;
68449;SDS011;67758;39.572;2.652;2023-04-30T07:02:59;3.33;;;0.87;;
68449;SDS011;67758;39.572;2.652;2023-04-30T07:05:27;4.18;;;1.00;;
68449;SDS011;67758;39.572;2.652;2023-04-30T07:07:53;3.80;;;1.10;;
68449;SDS011;67758;39.572;2.652;2023-04-30T07:10:19;4.80;;;1.10;;
68449;SDS011;67758;39.572;2.652;2023-04-30T07:12:45;5.33;;;1.20;;
68449;SDS011;67758;39.572;2.652;2023-04-30T07:15:10;3.45;;;0.88;;
68449;SDS011;67758;39.572;2.652;2023-04-30T07:17:36;3.37;;;0.83;;
68449;SDS011;67758;39.572;2.652;2023-04-30T07:20:03;5.30;;;0.98;;
68449;SDS011;67758;39.572;2.652;2023-04-30T07:22:29;3.67;;;0.90;;
68449;SDS011;67758;39.572;2.652;2023-04-30T07:24:55;4.03;;;0.93;;
68449;SDS011;67758;39.572;2.652;2023-04-30T07:27:21;3.97;;;0.90;;
68449;SDS011;67758;39.572;2.652;2023-04-30T07:29:47;4.43;;;0.95;;
68449;SDS011;67758;39.572;2.652;2023-04-30T07:32:12;4.50;;;0.77;;
68449;SDS011;67758;39.572;2.652;2023-04-30T07:34:39;5.22;;;0.80;;
68449;SDS011;67758;39.572;2.652;2023-04-30T07:37:05;5.50;;;1.48;;
68449;SDS011;67758;39.572;2.652;2023-04-30T07:39:33;4.00;;;0.73;;
68449;SDS011;67758;39.572;2.652;2023-04-30T07:41:58;4.50;;;0.90;;
68449;SDS011;67758;39.572;2.652;2023-04-30T07:44:24;3.83;;;0.90;;
68449;SDS011;67758;39.572;2.652;2023-04-30T07:46:49;3.80;;;0.70;;
68449;SDS011;67758;39.572;2.652;2023-04-30T07:49:15;5.00;;;1.17;;
68449;SDS011;67758;39.572;2.652;2023-04-30T07:51:41;4.27;;;1.30;;
68449;SDS011;67758;39.572;2.652;2023-04-30T07:54:07;3.80;;;0.83;;
68449;SDS011;67758;39.572;2.652;2023-04-30T07:56:32;4.87;;;0.60;;
68449;SDS011;67758;39.572;2.652;2023-04-30T07:58:58;3.83;;;0.80;;
68449;SDS011;67758;39.572;2.652;2023-04-30T08:01:24;3.35;;;0.70;;
68449;SDS011;67758;39.572;2.652;2023-04-30T08:03:49;4.37;;;0.83;;
68449;SDS011;67758;39.572;2.652;2023-04-30T08:06:15;5.50;;;0.85;;
68449;SDS011;67758;39.572;2.652;2023-04-30T08:08:40;3.53;;;0.73;;
68449;SDS011;67758;39.572;2.652;2023-04-30T08:11:06;3.30;;;0.60;;
68449;SDS011;67758;39.572;2.652;2023-04-30T08:13:32;5.10;;;0.87;;
68449;SDS011;67758;39.572;2.652;2023-04-30T08:16:00;4.47;;;1.50;;
68449;SDS011;67758;39.572;2.652;2023-04-30T08:18:28;3.42;;;0.80;;
68449;SDS011;67758;39.572;2.652;2023-04-30T08:20:54;3.35;;;0.80;;
68449;SDS011;67758;39.572;2.652;2023-04-30T08:23:19;3.13;;;0.80;;
68449;SDS011;67758;39.572;2.652;2023-04-30T08:25:45;7.00;;;2.33;;
68449;SDS011;67758;39.572;2.652;2023-04-30T08:28:12;6.82;;;1.50;;
68449;SDS011;67758;39.572;2.652;2023-04-30T08:30:39;4.85;;;0.88;;
68449;SDS011;67758;39.572;2.652;2023-04-30T08:33:05;3.70;;;1.00;;
68449;SDS011;67758;39.572;2.652;2023-04-30T08:35:30;3.85;;;0.60;;
68449;SDS011;67758;39.572;2.652;2023-04-30T08:37:56;4.33;;;0.90;;
68449;SDS011;67758;39.572;2.652;2023-04-30T08:40:22;3.72;;;0.90;;
68449;SDS011;67758;39.572;2.652;2023-04-30T08:42:49;4.07;;;0.88;;
68449;SDS011;67758;39.572;2.652;2023-04-30T08:45:22;3.90;;;0.80;;
68449;SDS011;67758;39.572;2.652;2023-04-30T08:47:48;6.27;;;1.17;;
68449;SDS011;67758;39.572;2.652;2023-04-30T08:50:14;5.77;;;1.00;;
68449;SDS011;67758;39.572;2.652;2023-04-30T08:52:39;3.50;;;0.80;;
68449;SDS011;67758;39.572;2.652;2023-04-30T08:55:07;4.00;;;0.60;;
68449;SDS011;67758;39.572;2.652;2023-04-30T08:57:35;4.43;;;0.90;;
68449;SDS011;67758;39.572;2.652;2023-04-30T09:00:02;5.50;;;0.97;;
68449;SDS011;67758;39.572;2.652;2023-04-30T09:02:30;5.13;;;0.93;;
68449;SDS011;67758;39.572;2.652;2023-04-30T09:04:57;6.05;;;1.10;;
68449;SDS011;67758;39.572;2.652;2023-04-30T09:07:23;4.10;;;0.95;;
68449;SDS011;67758;39.572;2.652;2023-04-30T09:09:52;4.90;;;0.90;;
68449;SDS011;67758;39.572;2.652;2023-04-30T09:12:18;4.72;;;0.93;;
68449;SDS011;67758;39.572;2.652;2023-04-30T09:14:59;4.65;;;0.82;;
68449;SDS011;67758;39.572;2.652;2023-04-30T09:17:27;4.03;;;1.00;;
68449;SDS011;67758;39.572;2.652;2023-04-30T09:22:31;3.78;;;0.80;;
68449;SDS011;67758;39.572;2.652;2023-04-30T09:24:57;3.88;;;0.93;;
68449;SDS011;67758;39.572;2.652;2023-04-30T09:27:22;6.23;;;1.07;;
68449;SDS011;67758;39.572;2.652;2023-04-30T09:29:48;6.20;;;0.80;;
68449;SDS011;67758;39.572;2.652;2023-04-30T09:32:14;4.80;;;0.88;;
68449;SDS011;67758;39.572;2.652;2023-04-30T09:34:40;6.63;;;1.10;;
68449;SDS011;67758;39.572;2.652;2023-04-30T09:37:07;3.97;;;1.00;;
68449;SDS011;67758;39.572;2.652;2023-04-30T09:39:33;3.55;;;1.23;;
68449;SDS011;67758;39.572;2.652;2023-04-30T09:42:11;4.05;;;0.90;;
68449;SDS011;67758;39.572;2.652;2023-04-30T09:44:38;4.03;;;0.90;;
68449;SDS011;67758;39.572;2.652;2023-04-30T09:47:09;4.55;;;0.95;;
68449;SDS011;67758;39.572;2.652;2023-04-30T09:49:38;4.05;;;1.02;;
68449;SDS011;67758;39.572;2.652;2023-04-30T09:52:06;4.47;;;1.33;;
68449;SDS011;67758;39.572;2.652;2023-04-30T09:54:32;4.63;;;1.00;;
68449;SDS011;67758;39.572;2.652;2023-04-30T09:57:00;4.93;;;1.33;;
68449;SDS011;67758;39.572;2.652;2023-04-30T09:59:32;4.80;;;1.30;;
68449;SDS011;67758;39.572;2.652;2023-04-30T10:02:04;6.40;;;1.10;;
68449;SDS011;67758;39.572;2.652;2023-04-30T10:04:35;4.20;;;1.02;;
68449;SDS011;67758;39.572;2.652;2023-04-30T10:07:07;3.87;;;0.90;;
68449;SDS011;67758;39.572;2.652;2023-04-30T10:09:38;5.32;;;1.30;;
68449;SDS011;67758;39.572;2.652;2023-04-30T10:12:07;6.78;;;1.33;;
68449;SDS011;67758;39.572;2.652;2023-04-30T10:14:40;3.88;;;0.95;;
68449;SDS011;67758;39.572;2.652;2023-04-30T10:17:16;3.67;;;1.05;;
68449;SDS011;67758;39.572;2.652;2023-04-30T10:19:47;3.58;;;1.00;;
68449;SDS011;67758;39.572;2.652;2023-04-30T10:22:16;4.45;;;1.20;;
68449;SDS011;67758;39.572;2.652;2023-04-30T10:24:43;3.60;;;1.10;;
68449;SDS011;67758;39.572;2.652;2023-04-30T10:27:11;4.47;;;1.20;;
68449;SDS011;67758;39.572;2.652;2023-04-30T10:29:37;5.65;;;1.52;;
68449;SDS011;67758;39.572;2.652;2023-04-30T10:32:02;5.47;;;1.23;;
68449;SDS011;67758;39.572;2.652;2023-04-30T10:37:04;4.18;;;1.35;;
68449;SDS011;67758;39.572;2.652;2023-04-30T10:39:36;4.70;;;1.25;;
68449;SDS011;67758;39.572;2.652;2023-04-30T10:42:03;6.68;;;1.50;;
68449;SDS011;67758;39.572;2.652;2023-04-30T10:44:33;6.30;;;1.45;;
68449;SDS011;67758;39.572;2.652;2023-04-30T10:47:02;7.28;;;1.50;;
68449;SDS011;67758;39.572;2.652;2023-04-30T10:49:35;5.57;;;1.70;;
68449;SDS011;67758;39.572;2.652;2023-04-30T10:52:01;10.15;;;5.28;;
68449;SDS011;67758;39.572;2.652;2023-04-30T10:54:34;5.57;;;1.80;;
68449;SDS011;67758;39.572;2.652;2023-04-30T10:57:12;5.95;;;1.35;;
68449;SDS011;67758;39.572;2.652;2023-04-30T11:02:42;10.48;;;1.58;;
68449;SDS011;67758;39.572;2.652;2023-04-30T11:05:16;5.80;;;1.30;;
68449;SDS011;67758;39.572;2.652;2023-04-30T11:07:55;4.43;;;1.23;;
68449;SDS011;67758;39.572;2.652;2023-04-30T11:10:22;6.97;;;1.40;;
68449;SDS011;67758;39.572;2.652;2023-04-30T11:12:51;5.50;;;1.37;;
68449;SDS011;67758;39.572;2.652;2023-04-30T11:15:19;4.03;;;1.10;;
68449;SDS011;67758;39.572;2.652;2023-04-30T11:18:06;7.78;;;1.30;;
68449;SDS011;67758;39.572;2.652;2023-04-30T11:20:32;5.75;;;1.42;;
68449;SDS011;67758;39.572;2.652;2023-04-30T11:25:42;6.20;;;1.60;;
68449;SDS011;67758;39.572;2.652;2023-04-30T11:28:19;8.32;;;1.60;;
68449;SDS011;67758;39.572;2.652;2023-04-30T11:30:54;7.63;;;1.88;;
68449;SDS011;67758;39.572;2.652;2023-04-30T11:33:22;6.35;;;2.17;;
68449;SDS011;67758;39.572;2.652;2023-04-30T11:35:49;8.07;;;1.98;;
68449;SDS011;67758;39.572;2.652;2023-04-30T11:38:20;8.47;;;2.30;;
68449;SDS011;67758;39.572;2.652;2023-04-30T11:40:58;7.38;;;2.78;;
68449;SDS011;67758;39.572;2.652;2023-04-30T11:43:26;7.60;;;2.30;;
68449;SDS011;67758;39.572;2.652;2023-04-30T11:48:30;7.07;;;2.25;;
68449;SDS011;67758;39.572;2.652;2023-04-30T11:51:01;8.27;;;2.37;;
68449;SDS011;67758;39.572;2.652;2023-04-30T11:53:28;6.32;;;2.13;;
68449;SDS011;67758;39.572;2.652;2023-04-30T11:55:55;4.63;;;1.73;;
68449;SDS011;67758;39.572;2.652;2023-04-30T11:58:21;7.93;;;2.58;;
68449;SDS011;67758;39.572;2.652;2023-04-30T12:00:47;7.80;;;3.08;;
68449;SDS011;67758;39.572;2.652;2023-04-30T12:03:16;6.32;;;2.83;;
68449;SDS011;67758;39.572;2.652;2023-04-30T12:05:42;6.55;;;2.58;;
68449;SDS011;67758;39.572;2.652;2023-04-30T12:08:10;8.93;;;2.10;;
68449;SDS011;67758;39.572;2.652;2023-04-30T12:10:37;7.00;;;2.13;;
68449;SDS011;67758;39.572;2.652;2023-04-30T12:13:03;5.38;;;1.48;;
68449;SDS011;67758;39.572;2.652;2023-04-30T12:15:30;5.93;;;1.95;;
68449;SDS011;67758;39.572;2.652;2023-04-30T12:17:58;5.97;;;1.75;;
68449;SDS011;67758;39.572;2.652;2023-04-30T12:20:28;7.32;;;1.90;;
68449;SDS011;67758;39.572;2.652;2023-04-30T12:22:56;5.50;;;1.80;;
68449;SDS011;67758;39.572;2.652;2023-04-30T12:25:22;6.47;;;1.88;;
68449;SDS011;67758;39.572;2.652;2023-04-30T12:27:49;5.88;;;1.90;;
68449;SDS011;67758;39.572;2.652;2023-04-30T12:30:19;5.95;;;2.10;;
68449;SDS011;67758;39.572;2.652;2023-04-30T12:32:47;5.82;;;1.77;;
68449;SDS011;67758;39.572;2.652;2023-04-30T12:35:17;6.85;;;2.60;;
68449;SDS011;67758;39.572;2.652;2023-04-30T12:37:48;9.30;;;2.63;;
68449;SDS011;67758;39.572;2.652;2023-04-30T12:40:17;8.52;;;2.47;;
68449;SDS011;67758;39.572;2.652;2023-04-30T12:42:43;10.93;;;3.22;;
68449;SDS011;67758;39.572;2.652;2023-04-30T12:45:11;9.73;;;2.42;;
68449;SDS011;67758;39.572;2.652;2023-04-30T12:47:39;5.78;;;2.00;;
68449;SDS011;67758;39.572;2.652;2023-04-30T12:50:36;11.73;;;2.60;;
68449;SDS011;67758;39.572;2.652;2023-04-30T12:53:06;11.43;;;3.92;;
68449;SDS011;67758;39.572;2.652;2023-04-30T12:55:41;7.90;;;2.30;;
68449;SDS011;67758;39.572;2.652;2023-04-30T12:58:11;5.97;;;1.38;;
68449;SDS011;67758;39.572;2.652;2023-04-30T13:00:51;5.07;;;1.75;;
68449;SDS011;67758;39.572;2.652;2023-04-30T13:04:26;7.43;;;3.10;;
68449;SDS011;67758;39.572;2.652;2023-04-30T13:07:00;7.80;;;3.13;;
68449;SDS011;67758;39.572;2.652;2023-04-30T13:09:34;8.55;;;2.63;;
68449;SDS011;67758;39.572;2.652;2023-04-30T13:12:02;4.72;;;1.80;;
68449;SDS011;67758;39.572;2.652;2023-04-30T13:14:31;5.68;;;1.83;;
68449;SDS011;67758;39.572;2.652;2023-04-30T13:16:58;6.60;;;2.38;;
68449;SDS011;67758;39.572;2.652;2023-04-30T13:19:24;4.40;;;1.52;;
68449;SDS011;67758;39.572;2.652;2023-04-30T13:21:51;7.97;;;2.73;;
68449;SDS011;67758;39.572;2.652;2023-04-30T13:24:18;7.38;;;2.15;;
68449;SDS011;67758;39.572;2.652;2023-04-30T13:26:43;5.63;;;2.08;;
68449;SDS011;67758;39.572;2.652;2023-04-30T13:29:25;7.03;;;1.70;;
68449;SDS011;67758;39.572;2.652;2023-04-30T13:31:50;6.10;;;1.50;;
68449;SDS011;67758;39.572;2.652;2023-04-30T13:34:16;6.90;;;1.83;;
68449;SDS011;67758;39.572;2.652;2023-04-30T13:36:42;4.95;;;1.65;;
68449;SDS011;67758;39.572;2.652;2023-04-30T13:39:10;5.05;;;1.80;;
68449;SDS011;67758;39.572;2.652;2023-04-30T13:41:36;5.10;;;1.55;;
68449;SDS011;67758;39.572;2.652;2023-04-30T13:44:02;6.43;;;1.60;;
68449;SDS011;67758;39.572;2.652;2023-04-30T13:46:28;4.65;;;1.85;;
68449;SDS011;67758;39.572;2.652;2023-04-30T13:48:54;4.15;;;1.45;;
68449;SDS011;67758;39.572;2.652;2023-04-30T13:51:20;6.73;;;2.00;;
68449;SDS011;67758;39.572;2.652;2023-04-30T13:53:45;4.80;;;1.50;;
68449;SDS011;67758;39.572;2.652;2023-04-30T13:56:11;6.53;;;2.47;;
68449;SDS011;67758;39.572;2.652;2023-04-30T13:58:37;7.78;;;1.98;;
68449;SDS011;67758;39.572;2.652;2023-04-30T14:01:02;4.33;;;1.73;;
68449;SDS011;67758;39.572;2.652;2023-04-30T14:03:28;4.82;;;1.90;;
68449;SDS011;67758;39.572;2.652;2023-04-30T14:05:53;4.87;;;1.77;;
68449;SDS011;67758;39.572;2.652;2023-04-30T14:08:19;4.78;;;1.70;;
68449;SDS011;67758;39.572;2.652;2023-04-30T14:10:45;7.70;;;1.83;;
68449;SDS011;67758;39.572;2.652;2023-04-30T14:13:11;4.00;;;1.35;;
68449;SDS011;67758;39.572;2.652;2023-04-30T14:15:37;5.38;;;1.33;;
68449;SDS011;67758;39.572;2.652;2023-04-30T14:18:03;4.83;;;1.73;;
68449;SDS011;67758;39.572;2.652;2023-04-30T14:20:28;4.47;;;1.40;;
68449;SDS011;67758;39.572;2.652;2023-04-30T14:22:54;4.20;;;1.10;;
68449;SDS011;67758;39.572;2.652;2023-04-30T14:25:20;5.22;;;1.38;;
68449;SDS011;67758;39.572;2.652;2023-04-30T14:27:45;3.70;;;1.10;;
68449;SDS011;67758;39.572;2.652;2023-04-30T14:30:11;5.05;;;1.45;;
68449;SDS011;67758;39.572;2.652;2023-04-30T14:32:37;5.87;;;1.60;;
68449;SDS011;67758;39.572;2.652;2023-04-30T14:35:03;3.90;;;1.10;;
68449;SDS011;67758;39.572;2.652;2023-04-30T14:37:29;4.37;;;1.33;;
68449;SDS011;67758;39.572;2.652;2023-04-30T14:39:55;3.85;;;1.23;;
68449;SDS011;67758;39.572;2.652;2023-04-30T14:42:20;5.30;;;1.50;;
68449;SDS011;67758;39.572;2.652;2023-04-30T14:44:46;5.22;;;1.67;;
68449;SDS011;67758;39.572;2.652;2023-04-30T14:47:11;4.80;;;1.20;;
68449;SDS011;67758;39.572;2.652;2023-04-30T14:49:37;5.70;;;1.33;;
68449;SDS011;67758;39.572;2.652;2023-04-30T14:52:03;5.77;;;1.17;;
68449;SDS011;67758;39.572;2.652;2023-04-30T14:54:29;5.85;;;1.10;;
68449;SDS011;67758;39.572;2.652;2023-04-30T14:56:54;6.40;;;1.50;;
68449;SDS011;67758;39.572;2.652;2023-04-30T14:59:20;4.97;;;1.60;;
68449;SDS011;67758;39.572;2.652;2023-04-30T15:01:47;4.40;;;1.40;;
68449;SDS011;67758;39.572;2.652;2023-04-30T15:04:14;3.75;;;1.10;;
68449;SDS011;67758;39.572;2.652;2023-04-30T15:06:43;5.47;;;1.20;;
68449;SDS011;67758;39.572;2.652;2023-04-30T15:09:09;4.45;;;1.17;;
68449;SDS011;67758;39.572;2.652;2023-04-30T15:11:36;5.60;;;1.40;;
68449;SDS011;67758;39.572;2.652;2023-04-30T15:14:01;6.03;;;1.20;;
68449;SDS011;67758;39.572;2.652;2023-04-30T15:16:27;4.47;;;1.33;;
68449;SDS011;67758;39.572;2.652;2023-04-30T15:18:54;4.30;;;1.17;;
68449;SDS011;67758;39.572;2.652;2023-04-30T15:21:21;4.85;;;1.15;;
68449;SDS011;67758;39.572;2.652;2023-04-30T15:23:46;3.95;;;0.95;;
68449;SDS011;67758;39.572;2.652;2023-04-30T15:26:13;4.35;;;1.10;;